createdAt,value
2023-09-06T00:02:05.335Z,100657.73
2023-09-06T00:07:10.266Z,100652.51
2023-09-06T00:12:14.708Z,100661.23
2023-09-06T00:17:18.003Z,100658.79
2023-09-06T00:22:21.411Z,100650.29
2023-09-06T00:27:25.737Z,100645.00
2023-09-06T00:32:28.731Z,100643.26
2023-09-06T00:37:44.368Z,100649.28
2023-09-06T00:42:57.829Z,100654.70
2023-09-06T00:48:03.136Z,100653.77
2023-09-06T00:53:08.771Z,100647.80
2023-09-06T00:58:18.477Z,100647.10
2023-09-06T01:03:21.017Z,100638.54
2023-09-06T01:08:40.828Z,100629.73
2023-09-06T01:13:44.650Z,100637.48
2023-09-06T01:18:48.296Z,100640.38
2023-09-06T01:23:52.973Z,100638.66
2023-09-06T01:28:56.653Z,100629.75
2023-09-06T01:34:00.848Z,100635.23
2023-09-06T01:39:08.028Z,100631.46
2023-09-06T01:44:12.999Z,100627.43
2023-09-06T01:49:16.627Z,100617.48
2023-09-06T01:54:20.324Z,100617.90
2023-09-06T01:59:24.482Z,100624.80
2023-09-06T02:04:29.158Z,100626.44
2023-09-06T02:09:32.494Z,100622.73
2023-09-06T02:14:35.553Z,100624.25
2023-09-06T02:19:39.678Z,100624.43
2023-09-06T02:24:42.984Z,100628.33
2023-09-06T02:29:46.531Z,100634.67
2023-09-06T02:34:50.508Z,100639.15
2023-09-06T02:39:56.857Z,100640.09
2023-09-06T02:45:00.468Z,100641.23
2023-09-06T02:50:08.005Z,100638.35
2023-09-06T02:55:14.656Z,100641.94
2023-09-06T03:00:27.900Z,100646.23
2023-09-06T03:05:31.407Z,100648.76
2023-09-06T03:10:35.992Z,100652.37
2023-09-06T03:15:39.021Z,100656.55
2023-09-06T03:20:44.549Z,100657.14
2023-09-06T03:25:55.760Z,100660.52
2023-09-06T03:31:00.813Z,100664.58
2023-09-06T03:36:09.085Z,100664.83
2023-09-06T03:41:12.608Z,100671.87
2023-09-06T03:46:18.454Z,100674.86
2023-09-06T03:51:23.061Z,100674.82
2023-09-06T03:56:28.217Z,100681.30
2023-09-06T04:01:34.714Z,100669.29
2023-09-06T04:06:38.325Z,100675.22
2023-09-06T04:11:42.513Z,100674.69
2023-09-06T04:16:46.794Z,100672.55
2023-09-06T04:21:51.190Z,100673.30
2023-09-06T04:26:53.635Z,100674.08
2023-09-06T04:31:56.685Z,100678.94
2023-09-06T04:36:59.594Z,100685.79
2023-09-06T04:42:02.407Z,100684.06
2023-09-06T04:47:05.673Z,100681.11
2023-09-06T04:52:09.164Z,100688.09
2023-09-06T04:57:12.731Z,100696.20
2023-09-06T05:02:18.343Z,100695.84
2023-09-06T05:07:21.921Z,100694.02
2023-09-06T05:12:25.098Z,100698.48
2023-09-06T05:17:28.457Z,100693.33
2023-09-06T05:22:32.351Z,100695.25
2023-09-06T05:27:37.231Z,100691.94
2023-09-06T05:32:41.174Z,100693.59
2023-09-06T05:37:44.519Z,100686.86
2023-09-06T05:42:48.377Z,100690.30
2023-09-06T05:47:52.919Z,100688.33
2023-09-06T05:52:56.636Z,100690.13
2023-09-06T05:58:00.283Z,100689.06
2023-09-06T06:03:03.588Z,100690.23
2023-09-06T06:08:07.687Z,100692.85
2023-09-06T06:13:12.584Z,100694.70
2023-09-06T06:18:17.313Z,100696.92
2023-09-06T06:23:20.379Z,100700.59
2023-09-06T06:28:24.302Z,100700.64
2023-09-06T06:33:28.676Z,100703.17
2023-09-06T06:38:32.264Z,100711.50
2023-09-06T06:43:39.070Z,100711.10
2023-09-06T06:48:43.782Z,100714.28
2023-09-06T06:53:46.633Z,100703.73
2023-09-06T06:58:50.020Z,100705.04
2023-09-06T07:03:54.189Z,100702.34
2023-09-06T07:08:58.428Z,100706.34
2023-09-06T07:14:01.390Z,100708.09
2023-09-06T07:19:05.542Z,100705.32
2023-09-06T07:24:11.394Z,100715.45
2023-09-06T07:29:14.930Z,100722.25
2023-09-06T07:34:19.387Z,100726.90
2023-09-06T07:39:23.393Z,100728.29
2023-09-06T07:44:31.159Z,100724.83
2023-09-06T07:49:34.657Z,100727.02
2023-09-06T07:54:39.153Z,100728.73
2023-09-06T07:59:42.355Z,100735.02
2023-09-06T08:04:48.368Z,100732.12
2023-09-06T08:09:54.826Z,100730.75
2023-09-06T08:14:58.133Z,100733.16
2023-09-06T08:20:02.335Z,100741.79
2023-09-06T08:25:07.033Z,100737.64
2023-09-06T08:30:13.227Z,100735.37
2023-09-06T08:35:19.319Z,100743.33
2023-09-06T08:40:23.360Z,100740.27
2023-09-06T08:45:26.975Z,100742.61
2023-09-06T08:50:35.574Z,100738.89
2023-09-06T08:55:39.131Z,100740.08
2023-09-06T09:00:43.491Z,100739.56
2023-09-06T09:05:47.220Z,100743.47
2023-09-06T09:11:12.374Z,100747.02
2023-09-06T09:16:17.966Z,100748.69
2023-09-06T09:21:21.772Z,100746.15
2023-09-06T09:26:26.255Z,100747.45
2023-09-06T09:31:29.884Z,100745.09
2023-09-06T09:36:35.358Z,100752.66
2023-09-06T09:41:57.412Z,100756.34
2023-09-06T09:47:31.750Z,100760.09
2023-09-06T09:52:45.795Z,100758.73
2023-09-06T09:57:54.264Z,100760.52
2023-09-06T10:03:04.415Z,100763.14
2023-09-06T10:08:11.013Z,100766.52
2023-09-06T10:13:16.737Z,100762.48
2023-09-06T10:18:19.860Z,100765.82
2023-09-06T10:23:22.437Z,100761.92
2023-09-06T10:28:25.040Z,100764.38
2023-09-06T10:33:37.344Z,100758.85
2023-09-06T10:38:57.149Z,100761.58
2023-09-06T10:44:02.892Z,100755.92
2023-09-06T10:49:24.126Z,100762.27
2023-09-06T10:54:42.806Z,100751.59
2023-09-06T11:00:15.077Z,100746.38
2023-09-06T11:05:38.554Z,100745.05
2023-09-06T11:10:42.777Z,100744.95
2023-09-06T11:15:46.598Z,100739.61
2023-09-06T11:20:51.722Z,100734.94
2023-09-06T11:26:01.542Z,100728.59
2023-09-06T11:31:05.756Z,100733.14
2023-09-06T11:36:12.899Z,100733.52
2023-09-06T11:41:18.478Z,100725.48
2023-09-06T11:46:22.830Z,100724.61
2023-09-06T11:51:29.466Z,100720.75
2023-09-06T11:56:34.971Z,100718.44
2023-09-06T12:01:45.946Z,100721.05
2023-09-06T12:06:53.753Z,100712.33
2023-09-06T12:11:57.574Z,100707.97
2023-09-06T12:17:01.732Z,100700.47
2023-09-06T12:22:06.340Z,100697.00
2023-09-06T12:27:10.558Z,100691.59
2023-09-06T12:32:13.969Z,100692.58
2023-09-06T12:37:19.790Z,100688.23
2023-09-06T12:42:24.116Z,100684.70
2023-09-06T12:47:29.658Z,100682.29
2023-09-06T12:52:36.088Z,100679.42
2023-09-06T12:57:39.758Z,100677.66
2023-09-06T13:02:42.980Z,100673.96
2023-09-06T13:07:46.541Z,100670.59
2023-09-06T13:12:49.851Z,100671.34
2023-09-06T13:17:52.664Z,100661.45
2023-09-06T13:22:55.544Z,100651.20
2023-09-06T13:27:59.070Z,100644.49
2023-09-06T13:33:01.698Z,100646.21
2023-09-06T13:38:04.258Z,100644.54
2023-09-06T13:43:07.136Z,100643.23
2023-09-06T13:48:11.679Z,100635.02
2023-09-06T13:53:15.509Z,100631.39
2023-09-06T13:58:18.543Z,100626.66
2023-09-06T14:03:21.549Z,100628.75
2023-09-06T14:08:25.760Z,100624.77
2023-09-06T14:13:29.458Z,100626.75
2023-09-06T14:18:33.867Z,100620.23
2023-09-06T14:23:37.165Z,100616.11
2023-09-06T14:28:41.254Z,100617.77
2023-09-06T14:33:45.157Z,100616.80
2023-09-06T14:38:48.242Z,100618.16
2023-09-06T14:43:52.259Z,100620.25
2023-09-06T14:48:55.259Z,100619.44
2023-09-06T14:53:58.712Z,100617.06
2023-09-06T14:59:02.296Z,100611.46
2023-09-06T15:04:07.519Z,100611.62
2023-09-06T15:09:10.587Z,100612.26
2023-09-06T15:14:13.895Z,100616.44
2023-09-06T15:19:18.292Z,100610.31
2023-09-06T15:24:21.832Z,100611.75
2023-09-06T15:29:26.178Z,100609.63
2023-09-06T15:34:29.355Z,100613.63
2023-09-06T15:39:36.853Z,100613.83
2023-09-06T15:44:39.400Z,100616.76
2023-09-06T15:49:44.516Z,100613.32
2023-09-06T15:54:48.529Z,100614.42
2023-09-06T15:59:52.281Z,100612.66
2023-09-06T16:05:04.351Z,100614.78
2023-09-06T16:10:11.959Z,100611.76
2023-09-06T16:15:24.272Z,100611.31
2023-09-06T16:20:28.841Z,100618.00
2023-09-06T16:25:39.399Z,100620.11
2023-09-06T16:30:45.666Z,100622.30
2023-09-06T16:35:50.198Z,100620.20
2023-09-06T16:40:57.119Z,100621.23
2023-09-06T16:46:00.186Z,100626.42
2023-09-06T16:51:07.233Z,100634.80
2023-09-06T16:56:10.878Z,100635.98
2023-09-06T17:01:15.472Z,100634.90
2023-09-06T17:06:17.717Z,100630.14
2023-09-06T17:11:21.872Z,100633.20
2023-09-06T17:16:28.387Z,100625.51
2023-09-06T17:21:38.703Z,100634.08
2023-09-06T17:26:47.088Z,100642.36
2023-09-06T17:31:53.625Z,100643.89
2023-09-06T17:36:58.742Z,100638.55
2023-09-06T17:42:05.139Z,100645.30
2023-09-06T17:47:09.105Z,100651.75
2023-09-06T17:52:17.772Z,100657.33
2023-09-06T17:57:24.456Z,100659.83
2023-09-06T18:02:28.777Z,100666.55
2023-09-06T18:07:35.351Z,100665.80
2023-09-06T18:12:40.960Z,100663.57
2023-09-06T18:17:46.715Z,100665.20
2023-09-06T18:22:52.088Z,100670.19
2023-09-06T18:27:56.213Z,100673.59
2023-09-06T18:32:59.990Z,100676.00
2023-09-06T18:38:02.744Z,100677.17
2023-09-06T18:43:06.996Z,100676.67
2023-09-06T18:48:15.353Z,100678.14
2023-09-06T18:53:18.095Z,100682.67
2023-09-06T18:58:22.960Z,100680.65
2023-09-06T19:03:29.345Z,100685.63
2023-09-06T19:08:34.471Z,100685.59
2023-09-06T19:13:37.715Z,100684.39
2023-09-06T19:18:40.671Z,100682.59
2023-09-06T19:23:45.915Z,100678.25
2023-09-06T19:28:48.809Z,100684.45
2023-09-06T19:33:52.943Z,100685.85
2023-09-06T19:38:56.901Z,100684.93
2023-09-06T19:44:01.160Z,100686.06
2023-09-06T19:49:07.112Z,100689.00
2023-09-06T19:54:15.090Z,100691.11
2023-09-06T19:59:20.529Z,100693.13
2023-09-06T20:04:26.082Z,100698.53
2023-09-06T20:09:33.092Z,100699.50
2023-09-06T20:14:38.277Z,100704.48
2023-09-06T20:19:43.267Z,100704.02
2023-09-06T20:24:49.896Z,100706.47
2023-09-06T20:29:54.424Z,100709.00
2023-09-06T20:34:59.232Z,100710.72
2023-09-06T20:40:05.072Z,100716.20
2023-09-06T20:45:09.104Z,100718.36
2023-09-06T20:50:16.278Z,100719.67
2023-09-06T20:55:20.703Z,100726.45
2023-09-06T21:00:27.657Z,100728.45
2023-09-06T21:05:37.551Z,100733.17
2023-09-06T21:10:42.877Z,100735.38
2023-09-06T21:15:50.672Z,100738.53
2023-09-06T21:20:54.139Z,100737.35
2023-09-06T21:25:58.787Z,100739.64
2023-09-06T21:31:04.779Z,100743.38
2023-09-06T21:36:09.858Z,100738.65
2023-09-06T21:41:13.318Z,100739.48
2023-09-06T21:46:17.327Z,100745.91
2023-09-06T21:51:21.310Z,100742.75
2023-09-06T21:56:24.798Z,100738.35
2023-09-06T22:01:29.353Z,100737.64
2023-09-06T22:06:35.803Z,100739.50
2023-09-06T22:11:42.413Z,100743.52
2023-09-06T22:16:47.140Z,100739.10
2023-09-06T22:21:52.355Z,100745.68
2023-09-06T22:26:56.819Z,100744.30
2023-09-06T22:32:01.281Z,100753.87
2023-09-06T22:37:06.468Z,100760.31
2023-09-06T22:42:09.537Z,100766.05
2023-09-06T22:47:13.169Z,100766.20
2023-09-06T22:52:16.369Z,100773.74
2023-09-06T22:57:20.415Z,100773.98
2023-09-06T23:02:25.178Z,100771.58
2023-09-06T23:07:28.746Z,100776.86
2023-09-06T23:12:33.867Z,100771.95
2023-09-06T23:17:40.004Z,100771.15
2023-09-06T23:22:45.337Z,100770.86
2023-09-06T23:27:50.774Z,100776.42
2023-09-06T23:33:01.963Z,100778.83
2023-09-06T23:38:09.218Z,100777.24
2023-09-06T23:43:13.809Z,100780.33
2023-09-06T23:48:18.440Z,100780.46
2023-09-06T23:53:26.948Z,100783.62
2023-09-06T23:58:31.661Z,100789.98
